Aviation Digital Data Service (ADDS)

Output produced by METARs form (2251 UTC 15 February 2019)
found at http://www.aviationweather.gov/metar/data/
 
METAR text: BGSF 152150Z AUTO 06007KT 9999NDV FEW015/// OVC075/// M27/M30 Q1012
Conditions at: BGSF (SONDRE STROMFJOR, GL) observed 2150 UTC 15 February 2019
Temperature: -27.0°C (-17°F)
Dewpoint: -30.0°C (-22°F) [RH = 76%]
Pressure (altimeter): 29.88 inches Hg (1012.0 mb)
Winds: from the ENE (60 degrees) at 8 MPH (7 knots; 3.6 m/s)
Visibility: missing
Ceiling: 7500 feet AGL
Clouds: few clouds at 1500 feet AGL
overcast cloud deck at 7500 feet AGL
Weather: no significant weather observed at this time

METAR text: BGSF 152050Z AUTO 05005KT 9999NDV SCT013/// OVC075/// M27/M30 Q1011
Conditions at: BGSF (SONDRE STROMFJOR, GL) observed 2050 UTC 15 February 2019
Temperature: -27.0°C (-17°F)
Dewpoint: -30.0°C (-22°F) [RH = 76%]
Pressure (altimeter): 29.85 inches Hg (1011.0 mb)
Winds: from the NE (50 degrees) at 6 MPH (5 knots; 2.6 m/s)
Visibility: missing
Ceiling: 7500 feet AGL
Clouds: scattered clouds at 1300 feet AGL
overcast cloud deck at 7500 feet AGL
Weather: no significant weather observed at this time

METAR text: BGSF 151950Z AUTO 05005KT 9999NDV BKN075/// M27/M30 Q1011
Conditions at: BGSF (SONDRE STROMFJOR, GL) observed 1950 UTC 15 February 2019
Temperature: -27.0°C (-17°F)
Dewpoint: -30.0°C (-22°F) [RH = 76%]
Pressure (altimeter): 29.85 inches Hg (1011.0 mb)
Winds: from the NE (50 degrees) at 6 MPH (5 knots; 2.6 m/s)
Visibility: missing
Ceiling: 7500 feet AGL
Clouds: broken clouds at 7500 feet AGL
Weather: no significant weather observed at this time

METAR text: BGSF 151920Z 06004KT 9999 SCT075 M27/M30 Q1011
Conditions at: BGSF (SONDRE STROMFJOR, GL) observed 1920 UTC 15 February 2019
Temperature: -27.0°C (-17°F)
Dewpoint: -30.0°C (-22°F) [RH = 76%]
Pressure (altimeter): 29.85 inches Hg (1011.0 mb)
Winds: from the ENE (60 degrees) at 5 MPH (4 knots; 2.1 m/s)
Visibility: 6 or more miles (10+ km)
Ceiling: at least 12,000 feet AGL
Clouds: scattered clouds at 7500 feet AGL
Weather: no significant weather observed at this time

METAR text: BGSF 151850Z AUTO 06004KT 9999NDV FEW075/// M26/M30 Q1010
Conditions at: BGSF (SONDRE STROMFJOR, GL) observed 1850 UTC 15 February 2019
Temperature: -26.0°C (-15°F)
Dewpoint: -30.0°C (-22°F) [RH = 69%]
Pressure (altimeter): 29.82 inches Hg (1010.0 mb)
Winds: from the ENE (60 degrees) at 5 MPH (4 knots; 2.1 m/s)
Visibility: missing
Ceiling: at least 12,000 feet AGL
Clouds: few clouds at 7500 feet AGL
Weather: no significant weather observed at this time

METAR text: BGSF 151820Z 06004KT 9999 SCT070 M25/M28 Q1010
Conditions at: BGSF (SONDRE STROMFJOR, GL) observed 1820 UTC 15 February 2019
Temperature: -25.0°C (-13°F)
Dewpoint: -28.0°C (-18°F) [RH = 76%]
Pressure (altimeter): 29.82 inches Hg (1010.0 mb)
Winds: from the ENE (60 degrees) at 5 MPH (4 knots; 2.1 m/s)
Visibility: 6 or more miles (10+ km)
Ceiling: at least 12,000 feet AGL
Clouds: scattered clouds at 7000 feet AGL
Weather: no significant weather observed at this time

METAR text: BGSF 151750Z 06004KT 9999 SCT060 M26/M29 Q1010
Conditions at: BGSF (SONDRE STROMFJOR, GL) observed 1750 UTC 15 February 2019
Temperature: -26.0°C (-15°F)
Dewpoint: -29.0°C (-20°F) [RH = 76%]
Pressure (altimeter): 29.82 inches Hg (1010.0 mb)
Winds: from the ENE (60 degrees) at 5 MPH (4 knots; 2.1 m/s)
Visibility: 6 or more miles (10+ km)
Ceiling: at least 12,000 feet AGL
Clouds: scattered clouds at 6000 feet AGL
Weather: no significant weather observed at this time

METAR text: BGSF 151720Z 07006KT 9999 FEW060 M26/M30 Q1010
Conditions at: BGSF (SONDRE STROMFJOR, GL) observed 1720 UTC 15 February 2019
Temperature: -26.0°C (-15°F)
Dewpoint: -30.0°C (-22°F) [RH = 69%]
Pressure (altimeter): 29.82 inches Hg (1010.0 mb)
Winds: from the ENE (70 degrees) at 7 MPH (6 knots; 3.1 m/s)
Visibility: 6 or more miles (10+ km)
Ceiling: at least 12,000 feet AGL
Clouds: few clouds at 6000 feet AGL
Weather: no significant weather observed at this time

METAR text: BGSF 151650Z AUTO 05005KT 2900NDV -SHSN BR NCD M24/M28 Q1009
Conditions at: BGSF (SONDRE STROMFJOR, GL) observed 1650 UTC 15 February 2019
Temperature: -24.0°C (-11°F)
Dewpoint: -28.0°C (-18°F) [RH = 70%]
Pressure (altimeter): 29.79 inches Hg (1009.0 mb)
Winds: from the NE (50 degrees) at 6 MPH (5 knots; 2.6 m/s)
Visibility: missing
Ceiling: at least 12,000 feet AGL
Clouds: sky clear below 12,000 feet AGL
Weather: -SHSN BR  (light snow showers, mist)

METAR text: BGSF 151550Z 06005KT 9999 FEW015 M24/M28 Q1009
Conditions at: BGSF (SONDRE STROMFJOR, GL) observed 1550 UTC 15 February 2019
Temperature: -24.0°C (-11°F)
Dewpoint: -28.0°C (-18°F) [RH = 70%]
Pressure (altimeter): 29.79 inches Hg (1009.0 mb)
Winds: from the ENE (60 degrees) at 6 MPH (5 knots; 2.6 m/s)
Visibility: 6 or more miles (10+ km)
Ceiling: at least 12,000 feet AGL
Clouds: few clouds at 1500 feet AGL
Weather: no significant weather observed at this time

METAR text: BGSF 151520Z 05005KT 9999 FEW015 M24/M27 Q1009
Conditions at: BGSF (SONDRE STROMFJOR, GL) observed 1520 UTC 15 February 2019
Temperature: -24.0°C (-11°F)
Dewpoint: -27.0°C (-17°F) [RH = 76%]
Pressure (altimeter): 29.79 inches Hg (1009.0 mb)
Winds: from the NE (50 degrees) at 6 MPH (5 knots; 2.6 m/s)
Visibility: 6 or more miles (10+ km)
Ceiling: at least 12,000 feet AGL
Clouds: few clouds at 1500 feet AGL
Weather: no significant weather observed at this time

METAR text: BGSF 151450Z AUTO 06005KT 9999NDV NCD M25/M28 Q1009
Conditions at: BGSF (SONDRE STROMFJOR, GL) observed 1450 UTC 15 February 2019
Temperature: -25.0°C (-13°F)
Dewpoint: -28.0°C (-18°F) [RH = 76%]
Pressure (altimeter): 29.79 inches Hg (1009.0 mb)
Winds: from the ENE (60 degrees) at 6 MPH (5 knots; 2.6 m/s)
Visibility: missing
Ceiling: at least 12,000 feet AGL
Clouds: sky clear below 12,000 feet AGL
Weather: no significant weather observed at this time

METAR text: BGSF 151350Z AUTO 06005KT 9999NDV NCD M27/M30 Q1009
Conditions at: BGSF (SONDRE STROMFJOR, GL) observed 1350 UTC 15 February 2019
Temperature: -27.0°C (-17°F)
Dewpoint: -30.0°C (-22°F) [RH = 76%]
Pressure (altimeter): 29.79 inches Hg (1009.0 mb)
Winds: from the ENE (60 degrees) at 6 MPH (5 knots; 2.6 m/s)
Visibility: missing
Ceiling: at least 12,000 feet AGL
Clouds: sky clear below 12,000 feet AGL
Weather: no significant weather observed at this time

METAR text: BGSF 151250Z AUTO 06006KT 4400NDV -SHSN BR BKN075/// M27/M30 Q1009
Conditions at: BGSF (SONDRE STROMFJOR, GL) observed 1250 UTC 15 February 2019
Temperature: -27.0°C (-17°F)
Dewpoint: -30.0°C (-22°F) [RH = 76%]
Pressure (altimeter): 29.79 inches Hg (1009.0 mb)
Winds: from the ENE (60 degrees) at 7 MPH (6 knots; 3.1 m/s)
Visibility: missing
Ceiling: 7500 feet AGL
Clouds: broken clouds at 7500 feet AGL
Weather: -SHSN BR  (light snow showers, mist)

METAR text: BGSF 151150Z AUTO 06005KT 9999NDV BKN075/// M27/M31 Q1009
Conditions at: BGSF (SONDRE STROMFJOR, GL) observed 1150 UTC 15 February 2019
Temperature: -27.0°C (-17°F)
Dewpoint: -31.0°C (-24°F) [RH = 69%]
Pressure (altimeter): 29.79 inches Hg (1009.0 mb)
Winds: from the ENE (60 degrees) at 6 MPH (5 knots; 2.6 m/s)
Visibility: missing
Ceiling: 7500 feet AGL
Clouds: broken clouds at 7500 feet AGL
Weather: no significant weather observed at this time

METAR text: BGSF 151050Z AUTO 05005KT 9999NDV BKN075/// M27/M30 Q1009
Conditions at: BGSF (SONDRE STROMFJOR, GL) observed 1050 UTC 15 February 2019
Temperature: -27.0°C (-17°F)
Dewpoint: -30.0°C (-22°F) [RH = 76%]
Pressure (altimeter): 29.79 inches Hg (1009.0 mb)
Winds: from the NE (50 degrees) at 6 MPH (5 knots; 2.6 m/s)
Visibility: missing
Ceiling: 7500 feet AGL
Clouds: broken clouds at 7500 feet AGL
Weather: no significant weather observed at this time

METAR text: BGSF 150950Z AUTO 06005KT 9000NDV BKN075/// M27/M30 Q1008
Conditions at: BGSF (SONDRE STROMFJOR, GL) observed 0950 UTC 15 February 2019
Temperature: -27.0°C (-17°F)
Dewpoint: -30.0°C (-22°F) [RH = 76%]
Pressure (altimeter): 29.76 inches Hg (1008.0 mb)
Winds: from the ENE (60 degrees) at 6 MPH (5 knots; 2.6 m/s)
Visibility: missing
Ceiling: 7500 feet AGL
Clouds: broken clouds at 7500 feet AGL
Weather: no significant weather observed at this time

METAR text: BGSF 150850Z AUTO 05006KT 9999NDV NCD M27/M31 Q1008
Conditions at: BGSF (SONDRE STROMFJOR, GL) observed 0850 UTC 15 February 2019
Temperature: -27.0°C (-17°F)
Dewpoint: -31.0°C (-24°F) [RH = 69%]
Pressure (altimeter): 29.76 inches Hg (1008.0 mb)
Winds: from the NE (50 degrees) at 7 MPH (6 knots; 3.1 m/s)
Visibility: missing
Ceiling: at least 12,000 feet AGL
Clouds: sky clear below 12,000 feet AGL
Weather: no significant weather observed at this time

METAR text: BGSF 150750Z AUTO 04007KT 9999NDV FEW075/// M27/M30 Q1008
Conditions at: BGSF (SONDRE STROMFJOR, GL) observed 0750 UTC 15 February 2019
Temperature: -27.0°C (-17°F)
Dewpoint: -30.0°C (-22°F) [RH = 76%]
Pressure (altimeter): 29.76 inches Hg (1008.0 mb)
Winds: from the NE (40 degrees) at 8 MPH (7 knots; 3.6 m/s)
Visibility: missing
Ceiling: at least 12,000 feet AGL
Clouds: few clouds at 7500 feet AGL
Weather: no significant weather observed at this time

METAR text: BGSF 150650Z AUTO 06008KT 9999NDV NCD M28/M31 Q1008
Conditions at: BGSF (SONDRE STROMFJOR, GL) observed 0650 UTC 15 February 2019
Temperature: -28.0°C (-18°F)
Dewpoint: -31.0°C (-24°F) [RH = 75%]
Pressure (altimeter): 29.76 inches Hg (1008.0 mb)
Winds: from the ENE (60 degrees) at 9 MPH (8 knots; 4.1 m/s)
Visibility: missing
Ceiling: at least 12,000 feet AGL
Clouds: sky clear below 12,000 feet AGL
Weather: no significant weather observed at this time

METAR text: BGSF 150550Z AUTO 07008KT 9999NDV NCD M28/M31 Q1007
Conditions at: BGSF (SONDRE STROMFJOR, GL) observed 0550 UTC 15 February 2019
Temperature: -28.0°C (-18°F)
Dewpoint: -31.0°C (-24°F) [RH = 75%]
Pressure (altimeter): 29.73 inches Hg (1007.0 mb)
Winds: from the ENE (70 degrees) at 9 MPH (8 knots; 4.1 m/s)
Visibility: missing
Ceiling: at least 12,000 feet AGL
Clouds: sky clear below 12,000 feet AGL
Weather: no significant weather observed at this time

METAR text: BGSF 150450Z AUTO 06006KT 9999NDV FEW009/// BKN011/// M27/M30 Q1007
Conditions at: BGSF (SONDRE STROMFJOR, GL) observed 0450 UTC 15 February 2019
Temperature: -27.0°C (-17°F)
Dewpoint: -30.0°C (-22°F) [RH = 76%]
Pressure (altimeter): 29.73 inches Hg (1007.0 mb)
Winds: from the ENE (60 degrees) at 7 MPH (6 knots; 3.1 m/s)
Visibility: missing
Ceiling: 1100 feet AGL
Clouds: few clouds at 900 feet AGL
broken clouds at 1100 feet AGL
Weather: no significant weather observed at this time

METAR text: BGSF 150350Z AUTO 06006KT 9999NDV NCD M26/M29 Q1007
Conditions at: BGSF (SONDRE STROMFJOR, GL) observed 0350 UTC 15 February 2019
Temperature: -26.0°C (-15°F)
Dewpoint: -29.0°C (-20°F) [RH = 76%]
Pressure (altimeter): 29.73 inches Hg (1007.0 mb)
Winds: from the ENE (60 degrees) at 7 MPH (6 knots; 3.1 m/s)
Visibility: missing
Ceiling: at least 12,000 feet AGL
Clouds: sky clear below 12,000 feet AGL
Weather: no significant weather observed at this time

METAR text: BGSF 150250Z AUTO 07007KT 9999NDV FEW002/// BKN006/// M26/M29 Q1007
Conditions at: BGSF (SONDRE STROMFJOR, GL) observed 0250 UTC 15 February 2019
Temperature: -26.0°C (-15°F)
Dewpoint: -29.0°C (-20°F) [RH = 76%]
Pressure (altimeter): 29.73 inches Hg (1007.0 mb)
Winds: from the ENE (70 degrees) at 8 MPH (7 knots; 3.6 m/s)
Visibility: missing
Ceiling: 600 feet AGL
Clouds: few clouds at 200 feet AGL
broken clouds at 600 feet AGL
Weather: no significant weather observed at this time

METAR text: BGSF 150150Z AUTO 05007KT 9999NDV BKN001/// OVC006/// M25/M28 Q1007
Conditions at: BGSF (SONDRE STROMFJOR, GL) observed 0150 UTC 15 February 2019
Temperature: -25.0°C (-13°F)
Dewpoint: -28.0°C (-18°F) [RH = 76%]
Pressure (altimeter): 29.73 inches Hg (1007.0 mb)
Winds: from the NE (50 degrees) at 8 MPH (7 knots; 3.6 m/s)
Visibility: missing
Ceiling: 100 feet AGL
Clouds: broken clouds at 100 feet AGL
overcast cloud deck at 600 feet AGL
Weather: no significant weather observed at this time

METAR text: BGSF 150050Z AUTO 05008KT 9999NDV BKN006/// BKN009/// OVC012/// M26/M29 Q1007
Conditions at: BGSF (SONDRE STROMFJOR, GL) observed 0050 UTC 15 February 2019
Temperature: -26.0°C (-15°F)
Dewpoint: -29.0°C (-20°F) [RH = 76%]
Pressure (altimeter): 29.73 inches Hg (1007.0 mb)
Winds: from the NE (50 degrees) at 9 MPH (8 knots; 4.1 m/s)
Visibility: missing
Ceiling: 600 feet AGL
Clouds: broken clouds at 600 feet AGL
broken clouds at 900 feet AGL
overcast cloud deck at 1200 feet AGL
Weather: no significant weather observed at this time

METAR text: BGSF 142350Z AUTO 07005KT 9999NDV SCT009/// OVC011/// M26/M29 Q1007
Conditions at: BGSF (SONDRE STROMFJOR, GL) observed 2350 UTC 14 February 2019
Temperature: -26.0°C (-15°F)
Dewpoint: -29.0°C (-20°F) [RH = 76%]
Pressure (altimeter): 29.73 inches Hg (1007.0 mb)
Winds: from the ENE (70 degrees) at 6 MPH (5 knots; 2.6 m/s)
Visibility: missing
Ceiling: 1100 feet AGL
Clouds: scattered clouds at 900 feet AGL
overcast cloud deck at 1100 feet AGL
Weather: no significant weather observed at this time

METAR text: BGSF 142250Z AUTO 06007KT 9999NDV FEW008/// OVC010/// M27/M30 Q1007
Conditions at: BGSF (SONDRE STROMFJOR, GL) observed 2250 UTC 14 February 2019
Temperature: -27.0°C (-17°F)
Dewpoint: -30.0°C (-22°F) [RH = 76%]
Pressure (altimeter): 29.73 inches Hg (1007.0 mb)
Winds: from the ENE (60 degrees) at 8 MPH (7 knots; 3.6 m/s)
Visibility: missing
Ceiling: 1000 feet AGL
Clouds: few clouds at 800 feet AGL
overcast cloud deck at 1000 feet AGL
Weather: no significant weather observed at this time

METAR text: BGSF 142150Z AUTO 05007KT 9999NDV FEW009/// BKN012/// OVC015/// M27/M30 Q1007
Conditions at: BGSF (SONDRE STROMFJOR, GL) observed 2150 UTC 14 February 2019
Temperature: -27.0°C (-17°F)
Dewpoint: -30.0°C (-22°F) [RH = 76%]
Pressure (altimeter): 29.73 inches Hg (1007.0 mb)
Winds: from the NE (50 degrees) at 8 MPH (7 knots; 3.6 m/s)
Visibility: missing
Ceiling: 1200 feet AGL
Clouds: few clouds at 900 feet AGL
broken clouds at 1200 feet AGL
overcast cloud deck at 1500 feet AGL
Weather: no significant weather observed at this time

METAR text: BGSF 142050Z AUTO 05008KT 8000NDV -SHSN FEW008/// SCT011/// BKN015/// M27/M30 Q1007
Conditions at: BGSF (SONDRE STROMFJOR, GL) observed 2050 UTC 14 February 2019
Temperature: -27.0°C (-17°F)
Dewpoint: -30.0°C (-22°F) [RH = 76%]
Pressure (altimeter): 29.73 inches Hg (1007.0 mb)
Winds: from the NE (50 degrees) at 9 MPH (8 knots; 4.1 m/s)
Visibility: missing
Ceiling: 1500 feet AGL
Clouds: few clouds at 800 feet AGL
scattered clouds at 1100 feet AGL
broken clouds at 1500 feet AGL
Weather: -SHSN  (light snow showers)

METAR text: BGSF 141950Z AUTO 06007KT 9999NDV SCT007/// BKN012/// M26/M30 Q1007
Conditions at: BGSF (SONDRE STROMFJOR, GL) observed 1950 UTC 14 February 2019
Temperature: -26.0°C (-15°F)
Dewpoint: -30.0°C (-22°F) [RH = 69%]
Pressure (altimeter): 29.73 inches Hg (1007.0 mb)
Winds: from the ENE (60 degrees) at 8 MPH (7 knots; 3.6 m/s)
Visibility: missing
Ceiling: 1200 feet AGL
Clouds: scattered clouds at 700 feet AGL
broken clouds at 1200 feet AGL
Weather: no significant weather observed at this time

METAR text: BGSF 141850Z AUTO 05007KT 9999NDV SCT007/// BKN010/// BKN014/// M25/M28 Q1007
Conditions at: BGSF (SONDRE STROMFJOR, GL) observed 1850 UTC 14 February 2019
Temperature: -25.0°C (-13°F)
Dewpoint: -28.0°C (-18°F) [RH = 76%]
Pressure (altimeter): 29.73 inches Hg (1007.0 mb)
Winds: from the NE (50 degrees) at 8 MPH (7 knots; 3.6 m/s)
Visibility: missing
Ceiling: 1000 feet AGL
Clouds: scattered clouds at 700 feet AGL
broken clouds at 1000 feet AGL
broken clouds at 1400 feet AGL
Weather: no significant weather observed at this time

METAR text: BGSF 141750Z AUTO 06006KT 9999NDV FEW009/// OVC014/// M25/M28 Q1007
Conditions at: BGSF (SONDRE STROMFJOR, GL) observed 1750 UTC 14 February 2019
Temperature: -25.0°C (-13°F)
Dewpoint: -28.0°C (-18°F) [RH = 76%]
Pressure (altimeter): 29.73 inches Hg (1007.0 mb)
Winds: from the ENE (60 degrees) at 7 MPH (6 knots; 3.1 m/s)
Visibility: missing
Ceiling: 1400 feet AGL
Clouds: few clouds at 900 feet AGL
overcast cloud deck at 1400 feet AGL
Weather: no significant weather observed at this time

METAR text: BGSF 141650Z AUTO 07003KT 9999NDV -SHSN BKN012/// OVC016/// M24/M27 Q1006
Conditions at: BGSF (SONDRE STROMFJOR, GL) observed 1650 UTC 14 February 2019
Temperature: -24.0°C (-11°F)
Dewpoint: -27.0°C (-17°F) [RH = 76%]
Pressure (altimeter): 29.70 inches Hg (1006.0 mb)
Winds: from the ENE (70 degrees) at 3 MPH (3 knots; 1.5 m/s)
Visibility: missing
Ceiling: 1200 feet AGL
Clouds: broken clouds at 1200 feet AGL
overcast cloud deck at 1600 feet AGL
Weather: -SHSN  (light snow showers)

METAR text: BGSF 141550Z AUTO 06007KT 9999NDV BKN014/// OVC017/// M26/M29 Q1006
Conditions at: BGSF (SONDRE STROMFJOR, GL) observed 1550 UTC 14 February 2019
Temperature: -26.0°C (-15°F)
Dewpoint: -29.0°C (-20°F) [RH = 76%]
Pressure (altimeter): 29.70 inches Hg (1006.0 mb)
Winds: from the ENE (60 degrees) at 8 MPH (7 knots; 3.6 m/s)
Visibility: missing
Ceiling: 1400 feet AGL
Clouds: broken clouds at 1400 feet AGL
overcast cloud deck at 1700 feet AGL
Weather: no significant weather observed at this time

METAR text: BGSF 141450Z AUTO 06007KT 9999NDV NCD M26/M30 Q1006
Conditions at: BGSF (SONDRE STROMFJOR, GL) observed 1450 UTC 14 February 2019
Temperature: -26.0°C (-15°F)
Dewpoint: -30.0°C (-22°F) [RH = 69%]
Pressure (altimeter): 29.70 inches Hg (1006.0 mb)
Winds: from the ENE (60 degrees) at 8 MPH (7 knots; 3.6 m/s)
Visibility: missing
Ceiling: at least 12,000 feet AGL
Clouds: sky clear below 12,000 feet AGL
Weather: no significant weather observed at this time

METAR text: BGSF 141350Z 06006KT 9999 FEW015 M28/M31 Q1006
Conditions at: BGSF (SONDRE STROMFJOR, GL) observed 1350 UTC 14 February 2019
Temperature: -28.0°C (-18°F)
Dewpoint: -31.0°C (-24°F) [RH = 75%]
Pressure (altimeter): 29.70 inches Hg (1006.0 mb)
Winds: from the ENE (60 degrees) at 7 MPH (6 knots; 3.1 m/s)
Visibility: 6 or more miles (10+ km)
Ceiling: at least 12,000 feet AGL
Clouds: few clouds at 1500 feet AGL
Weather: no significant weather observed at this time

METAR text: BGSF 141250Z AUTO 06007KT 8000NDV NCD M30/M33 Q1006
Conditions at: BGSF (SONDRE STROMFJOR, GL) observed 1250 UTC 14 February 2019
Temperature: -30.0°C (-22°F)
Dewpoint: -33.0°C (-27°F) [RH = 75%]
Pressure (altimeter): 29.70 inches Hg (1006.0 mb)
Winds: from the ENE (60 degrees) at 8 MPH (7 knots; 3.6 m/s)
Visibility: missing
Ceiling: at least 12,000 feet AGL
Clouds: sky clear below 12,000 feet AGL
Weather: no significant weather observed at this time

METAR text: BGSF 141150Z AUTO 06006KT 9999NDV NCD M30/M33 Q1006
Conditions at: BGSF (SONDRE STROMFJOR, GL) observed 1150 UTC 14 February 2019
Temperature: -30.0°C (-22°F)
Dewpoint: -33.0°C (-27°F) [RH = 75%]
Pressure (altimeter): 29.70 inches Hg (1006.0 mb)
Winds: from the ENE (60 degrees) at 7 MPH (6 knots; 3.1 m/s)
Visibility: missing
Ceiling: at least 12,000 feet AGL
Clouds: sky clear below 12,000 feet AGL
Weather: no significant weather observed at this time

Forecast for: AMD
Text: TAF AMD BGSF 152245Z 1522/1524 06005KT 9999 SCT070
Forecast period: 2200 UTC 15 February 2019 to 0000 UTC 16 February 2019
Forecast type: FROM: standard forecast or significant change
Winds: from the ENE (60 degrees) at 6 MPH (5 knots; 2.6 m/s)
Visibility: 6 or more miles 10+ km)
Ceiling: at least 12,000 feet AGL
Clouds: scattered clouds at 7000 feet AGL
Weather: no significant weather forecast for this period
Text: TEMPO 1522/1524 BKN015
Forecast period: 2200 UTC 15 February 2019 to 0000 UTC 16 February 2019
Forecast type: TEMPORARY: The following changes expected for less than half the time period
Visibility: missing
Ceiling: 1500 feet AGL
Clouds: broken clouds at 1500 feet AGL
Weather: no significant weather forecast for this period